sensor_id;sensor_type;location;lat;lon;timestamp;P1;durP1;ratioP1;P2;durP2;ratioP2
44432;SDS011;30136;50.600;4.608;2022-07-05T00:00:55;4.50;;;1.20;;
44432;SDS011;30136;50.600;4.608;2022-07-05T00:02:02;4.18;;;1.20;;
44432;SDS011;30136;50.600;4.608;2022-07-05T00:03:03;4.28;;;1.20;;
44432;SDS011;30136;50.600;4.608;2022-07-05T00:04:10;8.07;;;0.90;;
44432;SDS011;30136;50.600;4.608;2022-07-05T00:05:11;3.03;;;1.08;;
44432;SDS011;30136;50.600;4.608;2022-07-05T00:06:12;3.25;;;1.02;;
44432;SDS011;30136;50.600;4.608;2022-07-05T00:07:19;3.20;;;1.20;;
44432;SDS011;30136;50.600;4.608;2022-07-05T00:08:20;1.63;;;0.80;;
44432;SDS011;30136;50.600;4.608;2022-07-05T00:09:27;7.18;;;1.38;;
44432;SDS011;30136;50.600;4.608;2022-07-05T00:10:28;1.80;;;1.00;;
44432;SDS011;30136;50.600;4.608;2022-07-05T00:11:36;2.75;;;1.10;;
44432;SDS011;30136;50.600;4.608;2022-07-05T00:12:50;1.85;;;0.93;;
44432;SDS011;30136;50.600;4.608;2022-07-05T00:13:57;4.78;;;1.15;;
44432;SDS011;30136;50.600;4.608;2022-07-05T00:14:58;2.10;;;1.17;;
44432;SDS011;30136;50.600;4.608;2022-07-05T00:16:00;4.38;;;1.30;;
44432;SDS011;30136;50.600;4.608;2022-07-05T00:17:08;5.60;;;1.10;;
44432;SDS011;30136;50.600;4.608;2022-07-05T00:18:10;4.05;;;1.00;;
44432;SDS011;30136;50.600;4.608;2022-07-05T00:19:18;2.83;;;1.10;;
44432;SDS011;30136;50.600;4.608;2022-07-05T00:20:19;2.83;;;1.10;;
44432;SDS011;30136;50.600;4.608;2022-07-05T00:21:27;1.10;;;0.68;;
44432;SDS011;30136;50.600;4.608;2022-07-05T00:22:28;2.60;;;0.90;;
44432;SDS011;30136;50.600;4.608;2022-07-05T00:23:28;1.83;;;0.90;;
44432;SDS011;30136;50.600;4.608;2022-07-05T00:24:39;3.58;;;1.00;;
44432;SDS011;30136;50.600;4.608;2022-07-05T00:25:40;2.50;;;1.05;;
44432;SDS011;30136;50.600;4.608;2022-07-05T00:26:47;2.20;;;1.00;;
44432;SDS011;30136;50.600;4.608;2022-07-05T00:27:48;1.08;;;0.80;;
44432;SDS011;30136;50.600;4.608;2022-07-05T00:28:48;6.80;;;1.17;;
44432;SDS011;30136;50.600;4.608;2022-07-05T00:29:56;1.95;;;0.88;;
44432;SDS011;30136;50.600;4.608;2022-07-05T00:30:56;1.33;;;0.80;;
44432;SDS011;30136;50.600;4.608;2022-07-05T00:32:04;2.03;;;0.90;;
44432;SDS011;30136;50.600;4.608;2022-07-05T00:33:05;1.52;;;1.00;;
44432;SDS011;30136;50.600;4.608;2022-07-05T00:34:13;1.85;;;0.70;;
44432;SDS011;30136;50.600;4.608;2022-07-05T00:35:14;1.73;;;0.80;;
44432;SDS011;30136;50.600;4.608;2022-07-05T00:36:14;4.13;;;0.98;;
44432;SDS011;30136;50.600;4.608;2022-07-05T00:37:22;2.45;;;0.63;;
44432;SDS011;30136;50.600;4.608;2022-07-05T00:38:23;2.35;;;1.00;;
44432;SDS011;30136;50.600;4.608;2022-07-05T00:39:30;5.50;;;1.15;;
44432;SDS011;30136;50.600;4.608;2022-07-05T00:40:30;8.95;;;1.10;;
44432;SDS011;30136;50.600;4.608;2022-07-05T00:41:38;8.25;;;1.23;;
44432;SDS011;30136;50.600;4.608;2022-07-05T00:42:39;3.72;;;1.02;;
44432;SDS011;30136;50.600;4.608;2022-07-05T00:45:23;4.50;;;1.25;;
44432;SDS011;30136;50.600;4.608;2022-07-05T00:46:24;4.10;;;0.90;;
44432;SDS011;30136;50.600;4.608;2022-07-05T00:47:33;7.05;;;1.08;;
44432;SDS011;30136;50.600;4.608;2022-07-05T00:48:34;8.98;;;1.02;;
44432;SDS011;30136;50.600;4.608;2022-07-05T00:49:41;6.32;;;0.88;;
44432;SDS011;30136;50.600;4.608;2022-07-05T00:51:50;8.07;;;1.08;;
44432;SDS011;30136;50.600;4.608;2022-07-05T00:52:52;4.07;;;1.02;;
44432;SDS011;30136;50.600;4.608;2022-07-05T00:53:55;2.58;;;1.15;;
44432;SDS011;30136;50.600;4.608;2022-07-05T00:55:03;6.07;;;0.88;;
44432;SDS011;30136;50.600;4.608;2022-07-05T00:56:05;4.07;;;0.90;;
44432;SDS011;30136;50.600;4.608;2022-07-05T00:57:13;3.28;;;0.95;;
44432;SDS011;30136;50.600;4.608;2022-07-05T00:58:14;3.67;;;1.02;;
44432;SDS011;30136;50.600;4.608;2022-07-05T00:59:22;5.35;;;0.77;;
44432;SDS011;30136;50.600;4.608;2022-07-05T01:00:23;2.22;;;1.10;;
44432;SDS011;30136;50.600;4.608;2022-07-05T01:01:24;2.88;;;0.90;;
44432;SDS011;30136;50.600;4.608;2022-07-05T01:02:34;7.55;;;0.95;;
44432;SDS011;30136;50.600;4.608;2022-07-05T01:03:35;7.82;;;0.90;;
44432;SDS011;30136;50.600;4.608;2022-07-05T01:04:42;1.92;;;0.70;;
44432;SDS011;30136;50.600;4.608;2022-07-05T01:05:43;2.15;;;0.88;;
44432;SDS011;30136;50.600;4.608;2022-07-05T01:06:52;1.85;;;1.08;;
44432;SDS011;30136;50.600;4.608;2022-07-05T01:08:02;1.13;;;0.73;;
44432;SDS011;30136;50.600;4.608;2022-07-05T01:09:25;4.20;;;0.90;;
44432;SDS011;30136;50.600;4.608;2022-07-05T01:10:26;4.43;;;1.10;;
44432;SDS011;30136;50.600;4.608;2022-07-05T01:11:27;1.77;;;0.70;;
44432;SDS011;30136;50.600;4.608;2022-07-05T01:12:39;1.55;;;0.90;;
44432;SDS011;30136;50.600;4.608;2022-07-05T01:13:54;1.50;;;0.80;;
44432;SDS011;30136;50.600;4.608;2022-07-05T01:15:02;1.17;;;0.73;;
44432;SDS011;30136;50.600;4.608;2022-07-05T01:16:03;1.45;;;0.88;;
44432;SDS011;30136;50.600;4.608;2022-07-05T01:17:12;2.40;;;0.65;;
44432;SDS011;30136;50.600;4.608;2022-07-05T01:18:13;1.40;;;0.70;;
44432;SDS011;30136;50.600;4.608;2022-07-05T01:19:14;1.25;;;0.60;;
44432;SDS011;30136;50.600;4.608;2022-07-05T01:20:24;2.33;;;0.73;;
44432;SDS011;30136;50.600;4.608;2022-07-05T01:21:26;3.38;;;0.73;;
44432;SDS011;30136;50.600;4.608;2022-07-05T01:22:49;1.77;;;0.70;;
44432;SDS011;30136;50.600;4.608;2022-07-05T01:23:59;3.25;;;0.90;;
44432;SDS011;30136;50.600;4.608;2022-07-05T01:25:07;1.48;;;0.77;;
44432;SDS011;30136;50.600;4.608;2022-07-05T01:26:08;1.60;;;0.70;;
44432;SDS011;30136;50.600;4.608;2022-07-05T01:27:16;1.52;;;0.90;;
44432;SDS011;30136;50.600;4.608;2022-07-05T01:28:21;2.00;;;0.73;;
44432;SDS011;30136;50.600;4.608;2022-07-05T01:29:22;2.92;;;0.70;;
44432;SDS011;30136;50.600;4.608;2022-07-05T01:30:29;8.90;;;1.23;;
44432;SDS011;30136;50.600;4.608;2022-07-05T01:31:38;1.70;;;0.80;;
44432;SDS011;30136;50.600;4.608;2022-07-05T01:32:46;2.23;;;0.63;;
44432;SDS011;30136;50.600;4.608;2022-07-05T01:34:55;3.70;;;0.70;;
44432;SDS011;30136;50.600;4.608;2022-07-05T01:35:56;4.53;;;0.80;;
44432;SDS011;30136;50.600;4.608;2022-07-05T01:36:57;1.27;;;0.75;;
44432;SDS011;30136;50.600;4.608;2022-07-05T01:38:05;0.90;;;0.70;;
44432;SDS011;30136;50.600;4.608;2022-07-05T01:39:06;2.33;;;0.77;;
44432;SDS011;30136;50.600;4.608;2022-07-05T01:40:15;1.35;;;0.70;;
44432;SDS011;30136;50.600;4.608;2022-07-05T01:41:17;0.93;;;0.55;;
44432;SDS011;30136;50.600;4.608;2022-07-05T01:42:25;0.98;;;0.55;;
44432;SDS011;30136;50.600;4.608;2022-07-05T01:43:26;1.77;;;0.75;;
44432;SDS011;30136;50.600;4.608;2022-07-05T01:44:27;1.42;;;0.73;;
44432;SDS011;30136;50.600;4.608;2022-07-05T01:45:37;1.42;;;0.68;;
44432;SDS011;30136;50.600;4.608;2022-07-05T01:46:42;6.85;;;0.82;;
44432;SDS011;30136;50.600;4.608;2022-07-05T01:47:50;2.10;;;0.73;;
44432;SDS011;30136;50.600;4.608;2022-07-05T01:48:51;0.80;;;0.68;;
44432;SDS011;30136;50.600;4.608;2022-07-05T01:50:04;1.35;;;0.73;;
44432;SDS011;30136;50.600;4.608;2022-07-05T01:51:10;4.47;;;0.88;;
44432;SDS011;30136;50.600;4.608;2022-07-05T01:52:26;5.70;;;0.70;;
44432;SDS011;30136;50.600;4.608;2022-07-05T01:53:30;1.40;;;0.90;;
44432;SDS011;30136;50.600;4.608;2022-07-05T01:54:33;1.80;;;0.77;;
44432;SDS011;30136;50.600;4.608;2022-07-05T01:55:41;3.50;;;0.70;;
44432;SDS011;30136;50.600;4.608;2022-07-05T01:56:42;0.82;;;0.60;;
44432;SDS011;30136;50.600;4.608;2022-07-05T01:57:50;0.70;;;0.60;;
44432;SDS011;30136;50.600;4.608;2022-07-05T01:58:51;1.50;;;0.70;;
44432;SDS011;30136;50.600;4.608;2022-07-05T01:59:53;1.92;;;0.70;;
44432;SDS011;30136;50.600;4.608;2022-07-05T02:01:01;1.60;;;0.73;;
44432;SDS011;30136;50.600;4.608;2022-07-05T02:02:02;1.27;;;0.88;;
44432;SDS011;30136;50.600;4.608;2022-07-05T02:03:11;3.03;;;0.63;;
44432;SDS011;30136;50.600;4.608;2022-07-05T02:04:13;0.50;;;0.50;;
44432;SDS011;30136;50.600;4.608;2022-07-05T02:05:22;1.73;;;0.90;;
44432;SDS011;30136;50.600;4.608;2022-07-05T02:06:23;1.67;;;0.60;;
44432;SDS011;30136;50.600;4.608;2022-07-05T02:07:24;2.90;;;0.55;;
44432;SDS011;30136;50.600;4.608;2022-07-05T02:08:32;1.73;;;0.70;;
44432;SDS011;30136;50.600;4.608;2022-07-05T02:09:33;1.73;;;0.70;;
44432;SDS011;30136;50.600;4.608;2022-07-05T02:10:41;0.80;;;0.60;;
44432;SDS011;30136;50.600;4.608;2022-07-05T02:11:43;2.70;;;0.60;;
44432;SDS011;30136;50.600;4.608;2022-07-05T02:13:04;1.23;;;0.60;;
44432;SDS011;30136;50.600;4.608;2022-07-05T02:14:12;2.83;;;0.85;;
44432;SDS011;30136;50.600;4.608;2022-07-05T02:15:14;2.58;;;0.70;;
44432;SDS011;30136;50.600;4.608;2022-07-05T02:16:16;1.42;;;0.80;;
44432;SDS011;30136;50.600;4.608;2022-07-05T02:17:23;1.48;;;0.50;;
44432;SDS011;30136;50.600;4.608;2022-07-05T02:18:27;2.22;;;0.65;;
44432;SDS011;30136;50.600;4.608;2022-07-05T02:19:29;2.05;;;0.82;;
44432;SDS011;30136;50.600;4.608;2022-07-05T02:20:37;1.70;;;0.85;;
44432;SDS011;30136;50.600;4.608;2022-07-05T02:21:40;1.27;;;0.52;;
44432;SDS011;30136;50.600;4.608;2022-07-05T02:22:45;0.85;;;0.65;;
44432;SDS011;30136;50.600;4.608;2022-07-05T02:23:54;1.15;;;0.60;;
44432;SDS011;30136;50.600;4.608;2022-07-05T02:24:57;1.95;;;0.60;;
44432;SDS011;30136;50.600;4.608;2022-07-05T02:26:05;0.82;;;0.50;;
44432;SDS011;30136;50.600;4.608;2022-07-05T02:27:09;1.63;;;0.68;;
44432;SDS011;30136;50.600;4.608;2022-07-05T02:28:18;2.63;;;0.88;;
44432;SDS011;30136;50.600;4.608;2022-07-05T02:29:22;1.73;;;0.60;;
44432;SDS011;30136;50.600;4.608;2022-07-05T02:30:23;0.43;;;0.33;;
44432;SDS011;30136;50.600;4.608;2022-07-05T02:31:32;1.08;;;0.52;;
44432;SDS011;30136;50.600;4.608;2022-07-05T02:32:33;0.70;;;0.60;;
44432;SDS011;30136;50.600;4.608;2022-07-05T02:33:41;0.85;;;0.60;;
44432;SDS011;30136;50.600;4.608;2022-07-05T02:34:42;0.55;;;0.50;;
44432;SDS011;30136;50.600;4.608;2022-07-05T02:35:44;0.85;;;0.50;;
44432;SDS011;30136;50.600;4.608;2022-07-05T02:36:52;1.02;;;0.57;;
44432;SDS011;30136;50.600;4.608;2022-07-05T02:37:53;2.15;;;0.70;;
44432;SDS011;30136;50.600;4.608;2022-07-05T02:39:00;0.50;;;0.50;;
44432;SDS011;30136;50.600;4.608;2022-07-05T02:41:14;1.40;;;0.70;;
44432;SDS011;30136;50.600;4.608;2022-07-05T02:42:18;2.53;;;0.75;;
44432;SDS011;30136;50.600;4.608;2022-07-05T02:43:26;0.60;;;0.50;;
44432;SDS011;30136;50.600;4.608;2022-07-05T02:44:27;1.23;;;0.60;;
44432;SDS011;30136;50.600;4.608;2022-07-05T02:45:27;1.05;;;0.52;;
44432;SDS011;30136;50.600;4.608;2022-07-05T02:46:36;0.68;;;0.55;;
44432;SDS011;30136;50.600;4.608;2022-07-05T02:47:38;1.27;;;0.65;;
44432;SDS011;30136;50.600;4.608;2022-07-05T02:48:47;2.40;;;0.60;;
44432;SDS011;30136;50.600;4.608;2022-07-05T02:49:48;3.50;;;0.47;;
44432;SDS011;30136;50.600;4.608;2022-07-05T02:50:49;1.55;;;0.75;;
44432;SDS011;30136;50.600;4.608;2022-07-05T02:51:59;2.22;;;0.77;;
44432;SDS011;30136;50.600;4.608;2022-07-05T02:53:00;2.10;;;0.77;;
44432;SDS011;30136;50.600;4.608;2022-07-05T02:54:07;1.58;;;0.60;;
44432;SDS011;30136;50.600;4.608;2022-07-05T02:55:10;1.88;;;0.60;;
44432;SDS011;30136;50.600;4.608;2022-07-05T02:56:17;1.05;;;0.60;;
44432;SDS011;30136;50.600;4.608;2022-07-05T02:57:19;2.85;;;0.60;;
44432;SDS011;30136;50.600;4.608;2022-07-05T02:58:20;1.45;;;0.60;;
44432;SDS011;30136;50.600;4.608;2022-07-05T02:59:29;1.45;;;0.65;;
44432;SDS011;30136;50.600;4.608;2022-07-05T03:00:31;0.85;;;0.50;;
44432;SDS011;30136;50.600;4.608;2022-07-05T03:01:39;2.70;;;0.60;;
44432;SDS011;30136;50.600;4.608;2022-07-05T03:02:45;3.08;;;0.60;;
44432;SDS011;30136;50.600;4.608;2022-07-05T03:03:52;0.95;;;0.55;;
44432;SDS011;30136;50.600;4.608;2022-07-05T03:04:55;2.70;;;0.55;;
44432;SDS011;30136;50.600;4.608;2022-07-05T03:05:55;0.50;;;0.50;;
44432;SDS011;30136;50.600;4.608;2022-07-05T03:07:05;1.15;;;0.80;;
44432;SDS011;30136;50.600;4.608;2022-07-05T03:08:06;0.95;;;0.60;;
44432;SDS011;30136;50.600;4.608;2022-07-05T03:09:14;1.17;;;0.60;;
44432;SDS011;30136;50.600;4.608;2022-07-05T03:10:16;1.00;;;0.73;;
44432;SDS011;30136;50.600;4.608;2022-07-05T03:11:17;1.83;;;0.68;;
44432;SDS011;30136;50.600;4.608;2022-07-05T03:12:26;1.10;;;0.60;;
44432;SDS011;30136;50.600;4.608;2022-07-05T03:13:40;2.05;;;0.80;;
44432;SDS011;30136;50.600;4.608;2022-07-05T03:14:47;3.20;;;0.50;;
44432;SDS011;30136;50.600;4.608;2022-07-05T03:15:49;3.25;;;0.60;;
44432;SDS011;30136;50.600;4.608;2022-07-05T03:16:57;1.13;;;0.60;;
44432;SDS011;30136;50.600;4.608;2022-07-05T03:17:58;0.50;;;0.50;;
44432;SDS011;30136;50.600;4.608;2022-07-05T03:19:07;5.28;;;0.70;;
44432;SDS011;30136;50.600;4.608;2022-07-05T03:20:08;0.80;;;0.68;;
44432;SDS011;30136;50.600;4.608;2022-07-05T03:21:10;0.60;;;0.60;;
44432;SDS011;30136;50.600;4.608;2022-07-05T03:22:18;1.65;;;0.40;;
44432;SDS011;30136;50.600;4.608;2022-07-05T03:23:19;2.05;;;0.77;;
44432;SDS011;30136;50.600;4.608;2022-07-05T03:24:30;1.25;;;0.60;;
44432;SDS011;30136;50.600;4.608;2022-07-05T03:25:31;1.00;;;0.60;;
44432;SDS011;30136;50.600;4.608;2022-07-05T03:26:42;5.35;;;1.08;;
44432;SDS011;30136;50.600;4.608;2022-07-05T03:27:43;3.00;;;0.40;;
44432;SDS011;30136;50.600;4.608;2022-07-05T03:28:45;2.00;;;0.80;;
44432;SDS011;30136;50.600;4.608;2022-07-05T03:29:52;1.08;;;0.68;;
44432;SDS011;30136;50.600;4.608;2022-07-05T03:30:53;1.00;;;0.60;;
44432;SDS011;30136;50.600;4.608;2022-07-05T03:32:01;1.70;;;0.70;;
44432;SDS011;30136;50.600;4.608;2022-07-05T03:33:03;1.20;;;0.65;;
44432;SDS011;30136;50.600;4.608;2022-07-05T03:34:06;1.38;;;0.77;;
44432;SDS011;30136;50.600;4.608;2022-07-05T03:35:14;1.35;;;0.50;;
44432;SDS011;30136;50.600;4.608;2022-07-05T03:36:16;0.60;;;0.52;;
44432;SDS011;30136;50.600;4.608;2022-07-05T03:37:25;0.70;;;0.60;;
44432;SDS011;30136;50.600;4.608;2022-07-05T03:39:34;1.27;;;0.60;;
44432;SDS011;30136;50.600;4.608;2022-07-05T03:40:35;0.60;;;0.40;;
44432;SDS011;30136;50.600;4.608;2022-07-05T03:41:36;3.63;;;0.70;;
44432;SDS011;30136;50.600;4.608;2022-07-05T03:42:47;1.30;;;0.52;;
44432;SDS011;30136;50.600;4.608;2022-07-05T03:43:47;6.65;;;0.57;;
44432;SDS011;30136;50.600;4.608;2022-07-05T03:44:55;2.85;;;0.57;;
44432;SDS011;30136;50.600;4.608;2022-07-05T03:47:01;4.88;;;0.52;;
44432;SDS011;30136;50.600;4.608;2022-07-05T03:48:08;2.72;;;0.63;;
44432;SDS011;30136;50.600;4.608;2022-07-05T03:49:10;2.78;;;0.60;;
44432;SDS011;30136;50.600;4.608;2022-07-05T03:50:17;1.08;;;0.65;;
44432;SDS011;30136;50.600;4.608;2022-07-05T03:51:18;8.38;;;0.75;;
44432;SDS011;30136;50.600;4.608;2022-07-05T03:52:28;0.40;;;0.40;;
44432;SDS011;30136;50.600;4.608;2022-07-05T03:53:31;0.88;;;0.60;;
44432;SDS011;30136;50.600;4.608;2022-07-05T03:54:34;3.17;;;0.90;;
44432;SDS011;30136;50.600;4.608;2022-07-05T03:55:42;0.80;;;0.50;;
44432;SDS011;30136;50.600;4.608;2022-07-05T03:56:43;1.40;;;0.65;;
44432;SDS011;30136;50.600;4.608;2022-07-05T03:57:51;5.43;;;0.80;;
44432;SDS011;30136;50.600;4.608;2022-07-05T03:58:52;1.27;;;0.60;;
44432;SDS011;30136;50.600;4.608;2022-07-05T04:00:00;11.20;;;1.95;;
44432;SDS011;30136;50.600;4.608;2022-07-05T04:01:01;1.98;;;0.70;;
44432;SDS011;30136;50.600;4.608;2022-07-05T04:02:03;1.30;;;0.80;;
44432;SDS011;30136;50.600;4.608;2022-07-05T04:03:12;0.82;;;0.60;;
44432;SDS011;30136;50.600;4.608;2022-07-05T04:04:13;3.35;;;0.43;;
44432;SDS011;30136;50.600;4.608;2022-07-05T04:05:20;0.90;;;0.60;;
44432;SDS011;30136;50.600;4.608;2022-07-05T04:06:21;1.10;;;0.47;;
44432;SDS011;30136;50.600;4.608;2022-07-05T04:07:23;0.80;;;0.57;;
44432;SDS011;30136;50.600;4.608;2022-07-05T04:08:31;0.82;;;0.65;;
44432;SDS011;30136;50.600;4.608;2022-07-05T04:09:32;1.20;;;0.57;;
44432;SDS011;30136;50.600;4.608;2022-07-05T04:10:40;0.95;;;0.60;;
44432;SDS011;30136;50.600;4.608;2022-07-05T04:11:41;3.20;;;0.60;;
44432;SDS011;30136;50.600;4.608;2022-07-05T04:13:02;1.50;;;0.60;;
44432;SDS011;30136;50.600;4.608;2022-07-05T04:14:04;1.35;;;0.63;;
44432;SDS011;30136;50.600;4.608;2022-07-05T04:15:05;2.78;;;0.70;;
44432;SDS011;30136;50.600;4.608;2022-07-05T04:16:13;1.60;;;0.65;;
44432;SDS011;30136;50.600;4.608;2022-07-05T04:17:14;0.80;;;0.57;;
44432;SDS011;30136;50.600;4.608;2022-07-05T04:18:23;0.98;;;0.60;;
44432;SDS011;30136;50.600;4.608;2022-07-05T04:19:24;4.43;;;0.80;;
44432;SDS011;30136;50.600;4.608;2022-07-05T04:20:32;1.10;;;0.80;;
44432;SDS011;30136;50.600;4.608;2022-07-05T04:22:35;4.03;;;0.82;;
44432;SDS011;30136;50.600;4.608;2022-07-05T04:23:42;1.70;;;0.60;;
44432;SDS011;30136;50.600;4.608;2022-07-05T04:24:44;1.15;;;0.77;;
44432;SDS011;30136;50.600;4.608;2022-07-05T04:26:10;3.65;;;0.60;;
44432;SDS011;30136;50.600;4.608;2022-07-05T04:27:16;5.43;;;0.73;;
44432;SDS011;30136;50.600;4.608;2022-07-05T04:28:23;2.47;;;0.70;;
44432;SDS011;30136;50.600;4.608;2022-07-05T04:29:27;4.10;;;0.68;;
44432;SDS011;30136;50.600;4.608;2022-07-05T04:30:35;4.53;;;0.65;;
44432;SDS011;30136;50.600;4.608;2022-07-05T04:31:38;3.45;;;0.90;;
44432;SDS011;30136;50.600;4.608;2022-07-05T04:32:39;2.70;;;0.77;;
44432;SDS011;30136;50.600;4.608;2022-07-05T04:33:47;4.43;;;0.70;;
44432;SDS011;30136;50.600;4.608;2022-07-05T04:34:53;5.82;;;0.85;;
44432;SDS011;30136;50.600;4.608;2022-07-05T04:36:00;2.05;;;0.93;;
44432;SDS011;30136;50.600;4.608;2022-07-05T04:37:01;4.03;;;1.05;;
44432;SDS011;30136;50.600;4.608;2022-07-05T04:38:08;1.23;;;0.60;;
44432;SDS011;30136;50.600;4.608;2022-07-05T04:39:11;4.37;;;0.90;;
44432;SDS011;30136;50.600;4.608;2022-07-05T04:40:20;5.57;;;0.90;;
44432;SDS011;30136;50.600;4.608;2022-07-05T04:41:27;1.80;;;0.80;;
44432;SDS011;30136;50.600;4.608;2022-07-05T04:42:28;3.33;;;0.73;;
44432;SDS011;30136;50.600;4.608;2022-07-05T04:43:36;1.92;;;0.70;;
44432;SDS011;30136;50.600;4.608;2022-07-05T04:44:41;2.45;;;0.80;;
44432;SDS011;30136;50.600;4.608;2022-07-05T04:45:49;3.60;;;1.00;;
44432;SDS011;30136;50.600;4.608;2022-07-05T04:46:50;2.22;;;0.90;;
44432;SDS011;30136;50.600;4.608;2022-07-05T04:47:51;6.15;;;0.77;;
44432;SDS011;30136;50.600;4.608;2022-07-05T04:49:00;4.55;;;0.80;;
44432;SDS011;30136;50.600;4.608;2022-07-05T04:50:01;5.53;;;0.90;;
44432;SDS011;30136;50.600;4.608;2022-07-05T04:51:11;4.57;;;1.42;;
44432;SDS011;30136;50.600;4.608;2022-07-05T04:52:12;4.50;;;0.77;;
44432;SDS011;30136;50.600;4.608;2022-07-05T04:53:19;2.72;;;0.75;;
44432;SDS011;30136;50.600;4.608;2022-07-05T04:54:20;3.10;;;0.80;;
44432;SDS011;30136;50.600;4.608;2022-07-05T04:55:20;5.23;;;1.13;;
44432;SDS011;30136;50.600;4.608;2022-07-05T04:56:28;3.60;;;0.90;;
44432;SDS011;30136;50.600;4.608;2022-07-05T04:57:36;3.22;;;0.70;;
44432;SDS011;30136;50.600;4.608;2022-07-05T04:58:44;1.38;;;0.80;;
44432;SDS011;30136;50.600;4.608;2022-07-05T04:59:45;2.05;;;0.90;;
44432;SDS011;30136;50.600;4.608;2022-07-05T05:00:46;1.42;;;0.65;;
44432;SDS011;30136;50.600;4.608;2022-07-05T05:01:54;2.30;;;0.98;;
44432;SDS011;30136;50.600;4.608;2022-07-05T05:02:55;4.82;;;1.00;;
44432;SDS011;30136;50.600;4.608;2022-07-05T05:04:02;1.00;;;0.52;;
44432;SDS011;30136;50.600;4.608;2022-07-05T05:05:03;2.15;;;0.80;;
44432;SDS011;30136;50.600;4.608;2022-07-05T05:06:11;2.95;;;1.00;;
44432;SDS011;30136;50.600;4.608;2022-07-05T05:07:13;1.80;;;0.90;;
44432;SDS011;30136;50.600;4.608;2022-07-05T05:08:14;4.35;;;1.00;;
44432;SDS011;30136;50.600;4.608;2022-07-05T05:09:21;3.92;;;0.82;;
44432;SDS011;30136;50.600;4.608;2022-07-05T05:10:22;1.30;;;0.68;;
44432;SDS011;30136;50.600;4.608;2022-07-05T05:11:30;2.42;;;1.00;;
44432;SDS011;30136;50.600;4.608;2022-07-05T05:12:31;1.65;;;0.90;;
44432;SDS011;30136;50.600;4.608;2022-07-05T05:13:45;1.63;;;0.80;;
44432;SDS011;30136;50.600;4.608;2022-07-05T05:14:46;4.25;;;0.90;;
44432;SDS011;30136;50.600;4.608;2022-07-05T05:15:47;3.38;;;0.98;;
44432;SDS011;30136;50.600;4.608;2022-07-05T05:16:55;2.95;;;0.90;;
44432;SDS011;30136;50.600;4.608;2022-07-05T05:17:56;1.20;;;0.60;;
44432;SDS011;30136;50.600;4.608;2022-07-05T05:19:03;3.03;;;0.80;;
44432;SDS011;30136;50.600;4.608;2022-07-05T05:20:05;2.00;;;0.80;;
44432;SDS011;30136;50.600;4.608;2022-07-05T05:21:16;1.45;;;0.88;;
44432;SDS011;30136;50.600;4.608;2022-07-05T05:22:17;3.30;;;0.80;;
44432;SDS011;30136;50.600;4.608;2022-07-05T05:23:18;1.60;;;0.90;;
44432;SDS011;30136;50.600;4.608;2022-07-05T05:24:25;4.03;;;0.80;;
44432;SDS011;30136;50.600;4.608;2022-07-05T05:25:26;1.70;;;0.70;;
44432;SDS011;30136;50.600;4.608;2022-07-05T05:26:35;5.10;;;1.13;;
44432;SDS011;30136;50.600;4.608;2022-07-05T05:27:46;2.88;;;1.10;;
44432;SDS011;30136;50.600;4.608;2022-07-05T05:28:55;2.35;;;0.85;;
44432;SDS011;30136;50.600;4.608;2022-07-05T05:29:56;5.63;;;1.02;;
44432;SDS011;30136;50.600;4.608;2022-07-05T05:30:57;2.67;;;0.98;;
44432;SDS011;30136;50.600;4.608;2022-07-05T05:32:04;3.88;;;0.90;;
44432;SDS011;30136;50.600;4.608;2022-07-05T05:33:05;2.97;;;1.00;;
44432;SDS011;30136;50.600;4.608;2022-07-05T05:34:12;3.03;;;1.13;;
44432;SDS011;30136;50.600;4.608;2022-07-05T05:35:13;2.65;;;1.10;;
44432;SDS011;30136;50.600;4.608;2022-07-05T05:36:21;3.88;;;1.10;;
44432;SDS011;30136;50.600;4.608;2022-07-05T05:37:22;3.80;;;0.98;;
44432;SDS011;30136;50.600;4.608;2022-07-05T05:38:23;1.97;;;0.80;;
44432;SDS011;30136;50.600;4.608;2022-07-05T05:39:30;1.55;;;0.85;;
44432;SDS011;30136;50.600;4.608;2022-07-05T05:40:31;3.95;;;1.42;;
44432;SDS011;30136;50.600;4.608;2022-07-05T05:41:39;1.80;;;1.10;;
44432;SDS011;30136;50.600;4.608;2022-07-05T05:42:41;4.53;;;1.10;;
44432;SDS011;30136;50.600;4.608;2022-07-05T05:43:49;8.38;;;1.20;;
44432;SDS011;30136;50.600;4.608;2022-07-05T05:44:50;2.17;;;1.00;;
44432;SDS011;30136;50.600;4.608;2022-07-05T05:45:50;5.83;;;1.10;;
44432;SDS011;30136;50.600;4.608;2022-07-05T05:46:58;4.63;;;1.20;;
44432;SDS011;30136;50.600;4.608;2022-07-05T05:47:59;2.83;;;1.02;;
44432;SDS011;30136;50.600;4.608;2022-07-05T05:49:07;3.03;;;1.10;;
44432;SDS011;30136;50.600;4.608;2022-07-05T05:50:08;2.00;;;1.23;;
44432;SDS011;30136;50.600;4.608;2022-07-05T05:51:15;7.80;;;1.10;;
44432;SDS011;30136;50.600;4.608;2022-07-05T05:52:16;2.83;;;1.15;;
44432;SDS011;30136;50.600;4.608;2022-07-05T05:53:17;2.53;;;1.23;;
44432;SDS011;30136;50.600;4.608;2022-07-05T05:54:24;4.80;;;1.20;;
44432;SDS011;30136;50.600;4.608;2022-07-05T05:55:26;5.20;;;1.20;;
44432;SDS011;30136;50.600;4.608;2022-07-05T05:56:35;2.78;;;1.10;;
44432;SDS011;30136;50.600;4.608;2022-07-05T05:57:38;7.82;;;1.20;;
44432;SDS011;30136;50.600;4.608;2022-07-05T05:58:45;5.43;;;1.27;;
44432;SDS011;30136;50.600;4.608;2022-07-05T05:59:46;10.70;;;1.35;;
44432;SDS011;30136;50.600;4.608;2022-07-05T06:00:47;4.40;;;1.50;;
44432;SDS011;30136;50.600;4.608;2022-07-05T06:01:54;5.47;;;1.27;;
44432;SDS011;30136;50.600;4.608;2022-07-05T06:02:55;4.15;;;1.30;;
44432;SDS011;30136;50.600;4.608;2022-07-05T06:04:02;8.33;;;1.40;;
44432;SDS011;30136;50.600;4.608;2022-07-05T06:05:03;7.33;;;1.20;;
44432;SDS011;30136;50.600;4.608;2022-07-05T06:06:04;5.85;;;1.40;;
44432;SDS011;30136;50.600;4.608;2022-07-05T06:07:12;10.25;;;1.20;;
44432;SDS011;30136;50.600;4.608;2022-07-05T06:08:13;21.67;;;1.67;;
44432;SDS011;30136;50.600;4.608;2022-07-05T06:09:21;25.07;;;2.23;;
44432;SDS011;30136;50.600;4.608;2022-07-05T06:10:23;16.35;;;1.55;;
44432;SDS011;30136;50.600;4.608;2022-07-05T06:11:39;8.98;;;1.60;;
44432;SDS011;30136;50.600;4.608;2022-07-05T06:12:47;6.78;;;1.33;;
44432;SDS011;30136;50.600;4.608;2022-07-05T06:14:04;7.63;;;1.50;;
44432;SDS011;30136;50.600;4.608;2022-07-05T06:15:05;12.70;;;1.73;;
44432;SDS011;30136;50.600;4.608;2022-07-05T06:17:14;20.65;;;1.83;;
44432;SDS011;30136;50.600;4.608;2022-07-05T06:18:15;13.23;;;1.60;;
44432;SDS011;30136;50.600;4.608;2022-07-05T06:19:22;7.22;;;1.25;;
44432;SDS011;30136;50.600;4.608;2022-07-05T06:20:24;11.57;;;1.60;;
44432;SDS011;30136;50.600;4.608;2022-07-05T06:21:27;11.07;;;1.38;;
44432;SDS011;30136;50.600;4.608;2022-07-05T06:22:34;10.32;;;1.60;;
44432;SDS011;30136;50.600;4.608;2022-07-05T06:24:43;5.72;;;1.33;;
44432;SDS011;30136;50.600;4.608;2022-07-05T06:25:44;7.57;;;1.80;;
44432;SDS011;30136;50.600;4.608;2022-07-05T06:26:51;7.43;;;1.60;;
44432;SDS011;30136;50.600;4.608;2022-07-05T06:27:53;6.82;;;1.33;;
44432;SDS011;30136;50.600;4.608;2022-07-05T06:29:07;9.52;;;1.20;;
44432;SDS011;30136;50.600;4.608;2022-07-05T06:30:15;8.30;;;1.40;;
44432;SDS011;30136;50.600;4.608;2022-07-05T06:31:17;5.88;;;1.70;;
44432;SDS011;30136;50.600;4.608;2022-07-05T06:32:25;8.23;;;1.50;;
44432;SDS011;30136;50.600;4.608;2022-07-05T06:33:26;7.97;;;1.38;;
44432;SDS011;30136;50.600;4.608;2022-07-05T06:34:34;9.45;;;1.33;;
44432;SDS011;30136;50.600;4.608;2022-07-05T06:35:35;4.87;;;1.37;;
44432;SDS011;30136;50.600;4.608;2022-07-05T06:36:37;10.30;;;1.60;;
44432;SDS011;30136;50.600;4.608;2022-07-05T06:38:55;18.50;;;2.58;;
44432;SDS011;30136;50.600;4.608;2022-07-05T06:40:02;6.97;;;1.50;;
44432;SDS011;30136;50.600;4.608;2022-07-05T06:42:11;6.32;;;1.33;;
44432;SDS011;30136;50.600;4.608;2022-07-05T06:43:12;7.13;;;1.33;;
44432;SDS011;30136;50.600;4.608;2022-07-05T06:44:26;4.67;;;1.57;;